createdAt,value
2024-04-14T00:00:10.555Z,100151.81
2024-04-14T00:02:40.385Z,100179.56
2024-04-14T00:05:07.530Z,100167.31
2024-04-14T00:07:35.319Z,100158.97
2024-04-14T00:10:02.025Z,100168.84
2024-04-14T00:12:28.992Z,100155.13
2024-04-14T00:14:56.343Z,100157.72
2024-04-14T00:17:23.039Z,100162.97
2024-04-14T00:19:54.045Z,100150.81
2024-04-14T00:22:21.710Z,100160.59
2024-04-14T00:24:48.519Z,100163.31
2024-04-14T00:27:15.339Z,100154.38
2024-04-14T00:29:42.010Z,100155.31
2024-04-14T00:32:08.925Z,100143.84
2024-04-14T00:34:35.610Z,100143.16
2024-04-14T00:37:02.392Z,100138.41
2024-04-14T00:39:29.153Z,100134.50
2024-04-14T00:41:56.339Z,100145.91
2024-04-14T00:44:22.976Z,100143.25
2024-04-14T00:46:49.760Z,100139.41
2024-04-14T00:49:16.612Z,100138.56
2024-04-14T00:51:43.428Z,100135.19
2024-04-14T00:54:12.843Z,100135.19
2024-04-14T00:56:40.194Z,100131.25
2024-04-14T00:59:06.939Z,100144.25
2024-04-14T01:01:33.656Z,100128.88
2024-04-14T01:04:00.518Z,100131.50
2024-04-14T01:06:27.424Z,100129.34
2024-04-14T01:08:54.385Z,100088.63
2024-04-14T01:11:21.404Z,100124.69
2024-04-14T01:13:48.387Z,100116.09
2024-04-14T01:16:15.127Z,100113.22
2024-04-14T01:18:41.855Z,100108.97
2024-04-14T01:21:08.668Z,100107.84
2024-04-14T01:23:35.347Z,100101.81
2024-04-14T01:26:02.138Z,100098.59
2024-04-14T01:28:28.752Z,100109.63
2024-04-14T01:30:55.504Z,100100.28
2024-04-14T01:33:22.289Z,100109.28
2024-04-14T01:35:49.075Z,100107.59
2024-04-14T01:38:22.058Z,100107.94
2024-04-14T01:40:52.955Z,100099.41
2024-04-14T01:43:19.598Z,100099.41
2024-04-14T01:45:46.847Z,100101.13
2024-04-14T01:48:13.848Z,100089.91
2024-04-14T01:50:40.649Z,100092.47
2024-04-14T01:53:07.328Z,100086.06
2024-04-14T01:55:34.274Z,100085.47
2024-04-14T01:58:01.101Z,100092.13
2024-04-14T02:00:28.210Z,100094.25
2024-04-14T02:02:57.525Z,100100.34
2024-04-14T02:05:24.592Z,100100.63
2024-04-14T02:07:51.265Z,100086.84
2024-04-14T02:10:18.003Z,100075.03
2024-04-14T02:12:44.691Z,100087.53
2024-04-14T02:15:11.449Z,100092.69
2024-04-14T02:17:38.402Z,100084.72
2024-04-14T02:20:05.999Z,100093.63
2024-04-14T02:22:33.022Z,100081.75
2024-04-14T02:25:00.092Z,100093.97
2024-04-14T02:27:26.850Z,100080.53
2024-04-14T02:29:53.594Z,100078.66
2024-04-14T02:32:21.240Z,100079.63
2024-04-14T02:34:48.015Z,100080.63
2024-04-14T02:37:14.644Z,100087.03
2024-04-14T02:39:41.372Z,100083.59
2024-04-14T02:42:08.038Z,100078.84
2024-04-14T02:44:34.728Z,100068.47
2024-04-14T02:47:01.402Z,100079.88
2024-04-14T02:49:29.928Z,100071.88
2024-04-14T02:51:57.438Z,100062.50
2024-04-14T02:54:24.887Z,100074.94
2024-04-14T02:56:51.733Z,100071.19
2024-04-14T02:59:18.512Z,100039.50
2024-04-14T03:01:48.159Z,100058.59
2024-04-14T03:04:15.148Z,100076.72
2024-04-14T03:06:41.970Z,100070.84
2024-04-14T03:09:08.782Z,100065.59
2024-04-14T03:11:35.798Z,100061.59
2024-04-14T03:14:02.953Z,100058.59
2024-04-14T03:16:29.698Z,100064.03
2024-04-14T03:18:56.547Z,100058.25
2024-04-14T03:21:24.618Z,100061.16
2024-04-14T03:23:51.735Z,100058.59
2024-04-14T03:26:18.693Z,100022.91
2024-04-14T03:28:45.503Z,100060.66
2024-04-14T03:31:12.574Z,100065.66
2024-04-14T03:33:39.437Z,100056.81
2024-04-14T03:36:08.548Z,100059.47
2024-04-14T03:38:35.821Z,100057.09
2024-04-14T03:41:03.299Z,100059.47
2024-04-14T03:43:30.211Z,100059.72
2024-04-14T03:45:57.250Z,100047.13
2024-04-14T03:48:24.324Z,100053.53
2024-04-14T03:50:51.027Z,100062.25
2024-04-14T03:53:17.866Z,100056.56
2024-04-14T03:55:44.516Z,100047.75
2024-04-14T03:58:11.286Z,100043.84
2024-04-14T04:00:38.255Z,100047.38
2024-04-14T04:03:05.168Z,100046.47
2024-04-14T04:05:31.919Z,100051.19
2024-04-14T04:08:00.001Z,100042.38
2024-04-14T04:10:26.755Z,100049.25
2024-04-14T04:15:20.179Z,100050.44
2024-04-14T04:17:49.144Z,100043.63
2024-04-14T04:20:15.968Z,100045.56
2024-04-14T04:22:42.655Z,100025.94
2024-04-14T04:25:09.539Z,100044.72
2024-04-14T04:27:36.313Z,100047.19
2024-04-14T04:30:03.442Z,100047.88
2024-04-14T04:32:30.206Z,100047.34
2024-04-14T04:34:56.883Z,100037.94
2024-04-14T04:37:23.615Z,100046.09
2024-04-14T04:39:50.486Z,100038.78
2024-04-14T04:42:17.259Z,100051.94
2024-04-14T04:44:44.001Z,100048.72
2024-04-14T04:47:10.984Z,100023.53
2024-04-14T04:49:37.665Z,100063.78
2024-04-14T04:52:04.891Z,100054.50
2024-04-14T04:54:31.592Z,100058.75
2024-04-14T04:56:58.317Z,100058.41
2024-04-14T04:59:25.123Z,100064.59
2024-04-14T05:01:51.755Z,100058.69
2024-04-14T05:04:18.586Z,100067.56
2024-04-14T05:06:45.369Z,100055.88
2024-04-14T05:09:12.223Z,100073.72
2024-04-14T05:11:38.902Z,100065.22
2024-04-14T05:14:06.205Z,100063.44
2024-04-14T05:16:32.901Z,100080.00
2024-04-14T05:18:59.627Z,100072.66
2024-04-14T05:21:26.380Z,100062.88
2024-04-14T05:23:53.063Z,100075.63
2024-04-14T05:26:19.781Z,100082.25
2024-04-14T05:28:46.586Z,100076.47
2024-04-14T05:31:13.479Z,100083.13
2024-04-14T05:33:40.147Z,100093.72
2024-04-14T05:36:07.557Z,100084.44
2024-04-14T05:38:36.694Z,100086.69
2024-04-14T05:41:03.894Z,100087.84
2024-04-14T05:43:30.639Z,100090.56
2024-04-14T05:45:58.735Z,100087.63
2024-04-14T05:48:25.669Z,100093.66
2024-04-14T05:50:52.488Z,100100.38
2024-04-14T05:53:19.193Z,100095.78
2024-04-14T05:55:47.262Z,100097.16
2024-04-14T05:58:14.051Z,100093.41
2024-04-14T06:00:41.108Z,100104.72
2024-04-14T06:03:08.579Z,100112.97
2024-04-14T06:05:35.595Z,100101.22
2024-04-14T06:08:03.056Z,100113.72
2024-04-14T06:10:29.887Z,100104.75
2024-04-14T06:12:56.649Z,100106.28
2024-04-14T06:15:25.851Z,100111.38
2024-04-14T06:17:52.642Z,100114.78
2024-04-14T06:20:19.358Z,100110.22
2024-04-14T06:22:46.037Z,100116.28
2024-04-14T06:25:12.782Z,100110.06
2024-04-14T06:27:39.454Z,100113.84
2024-04-14T06:30:08.437Z,100123.06
2024-04-14T06:32:36.695Z,100125.66
2024-04-14T06:35:03.688Z,100082.03
2024-04-14T06:37:30.421Z,100131.22
2024-04-14T06:39:57.306Z,100123.75
2024-04-14T06:42:23.985Z,100127.25
2024-04-14T06:44:50.797Z,100134.06
2024-04-14T06:47:17.812Z,100131.13
2024-04-14T06:49:44.605Z,100126.78
2024-04-14T06:52:11.271Z,100137.81
2024-04-14T06:54:37.998Z,100147.91
2024-04-14T06:57:05.076Z,100150.84
2024-04-14T06:59:31.791Z,100114.88
2024-04-14T07:01:58.671Z,100133.94
2024-04-14T07:04:25.633Z,100149.75
2024-04-14T07:06:52.686Z,100153.13
2024-04-14T07:09:19.438Z,100148.78
2024-04-14T07:11:46.629Z,100134.81
2024-04-14T07:14:13.380Z,100142.00
2024-04-14T07:16:40.198Z,100138.25
2024-04-14T07:19:06.945Z,100144.19
2024-04-14T07:21:37.471Z,100152.16
2024-04-14T07:24:05.095Z,100142.06
2024-04-14T07:26:31.785Z,100152.22
2024-04-14T07:28:58.881Z,100153.72
2024-04-14T07:31:25.883Z,100150.16
2024-04-14T07:34:04.637Z,100160.00
2024-04-14T07:36:31.569Z,100152.91
2024-04-14T07:38:58.532Z,100156.88
2024-04-14T07:41:25.645Z,100164.31
2024-04-14T07:43:53.494Z,100159.59
2024-04-14T07:46:20.300Z,100154.31
2024-04-14T07:48:47.308Z,100155.44
2024-04-14T07:51:14.239Z,100150.09
2024-04-14T07:53:40.901Z,100157.06
2024-04-14T07:56:07.984Z,100171.59
2024-04-14T07:58:34.595Z,100175.47
2024-04-14T08:01:03.567Z,100173.75
2024-04-14T08:03:42.569Z,100145.69
2024-04-14T08:06:19.615Z,100167.78
2024-04-14T08:08:46.336Z,100178.69
2024-04-14T08:11:13.330Z,100188.41
2024-04-14T08:13:40.666Z,100186.41
2024-04-14T08:16:07.969Z,100190.72
2024-04-14T08:18:34.842Z,100186.09
2024-04-14T08:21:03.531Z,100198.41
2024-04-14T08:23:30.358Z,100193.09
2024-04-14T08:25:57.109Z,100212.25
2024-04-14T08:28:24.129Z,100212.03
2024-04-14T08:30:51.056Z,100222.97
2024-04-14T08:33:17.788Z,100201.09
2024-04-14T08:35:44.523Z,100191.09
2024-04-14T08:38:12.215Z,100228.59
2024-04-14T08:40:39.012Z,100220.28
2024-04-14T08:43:05.900Z,100234.06
2024-04-14T08:45:34.313Z,100243.81
2024-04-14T08:48:03.559Z,100234.88
2024-04-14T08:50:31.696Z,100242.50
2024-04-14T08:52:58.476Z,100195.84
2024-04-14T08:55:25.334Z,100245.63
2024-04-14T08:57:52.359Z,100227.03
2024-04-14T09:00:20.756Z,100252.59
2024-04-14T09:02:47.617Z,100253.81
2024-04-14T09:05:14.587Z,100252.97
2024-04-14T09:07:41.395Z,100246.59
2024-04-14T09:10:08.592Z,100244.09
2024-04-14T09:12:35.315Z,100234.31
2024-04-14T09:15:05.749Z,100246.38
2024-04-14T09:17:36.110Z,100241.47
2024-04-14T09:20:03.654Z,100263.16
2024-04-14T09:22:30.424Z,100254.25
2024-04-14T09:24:57.235Z,100262.00
2024-04-14T09:27:25.366Z,100253.63
2024-04-14T09:29:54.894Z,100263.34
2024-04-14T09:32:21.873Z,100263.50
2024-04-14T09:34:48.635Z,100275.97
2024-04-14T09:37:19.696Z,100280.63
2024-04-14T09:39:48.756Z,100256.25
2024-04-14T09:42:15.844Z,100267.06
2024-04-14T09:44:43.778Z,100248.56
2024-04-14T09:47:12.226Z,100260.63
2024-04-14T09:49:40.179Z,100259.25
2024-04-14T09:52:09.084Z,100252.25
2024-04-14T09:54:38.002Z,100245.81
2024-04-14T09:57:05.066Z,100260.31
2024-04-14T09:59:31.903Z,100236.69
2024-04-14T10:01:59.733Z,100257.72
2024-04-14T10:04:28.502Z,100254.16
2024-04-14T10:06:55.635Z,100262.53
2024-04-14T10:09:25.776Z,100252.25
2024-04-14T10:11:52.924Z,100255.03
2024-04-14T10:14:20.574Z,100254.41
2024-04-14T10:16:57.489Z,100250.91
2024-04-14T10:19:24.263Z,100256.03
2024-04-14T10:22:00.616Z,100257.00
2024-04-14T10:24:27.559Z,100273.25
2024-04-14T10:27:05.762Z,100255.25
2024-04-14T10:29:32.969Z,100250.00
2024-04-14T10:31:59.779Z,100249.28
2024-04-14T10:34:31.071Z,100252.69
2024-04-14T10:36:58.859Z,100245.28
2024-04-14T10:39:25.977Z,100248.88
2024-04-14T10:41:52.970Z,100236.75
2024-04-14T10:44:20.204Z,100238.44
2024-04-14T10:46:50.310Z,100247.63
2024-04-14T10:49:18.138Z,100239.03
2024-04-14T10:51:47.602Z,100227.81
2024-04-14T10:54:14.276Z,100223.88
2024-04-14T10:56:40.901Z,100224.13
2024-04-14T10:59:07.616Z,100233.56
2024-04-14T11:01:34.917Z,100193.72
2024-04-14T11:04:04.416Z,100223.44
2024-04-14T11:06:31.348Z,100239.94
2024-04-14T11:09:00.321Z,100227.03
2024-04-14T11:11:27.247Z,100227.91
2024-04-14T11:13:54.300Z,100231.28
2024-04-14T11:16:21.088Z,100211.13
2024-04-14T11:18:49.072Z,100217.16
2024-04-14T11:21:19.827Z,100201.81
2024-04-14T11:23:49.758Z,100212.41
2024-04-14T11:26:16.612Z,100177.84
2024-04-14T11:28:43.406Z,100195.13
2024-04-14T11:31:10.377Z,100191.94
2024-04-14T11:33:38.536Z,100193.28
2024-04-14T11:36:10.819Z,100188.31
2024-04-14T11:38:38.121Z,100196.41
2024-04-14T11:41:06.195Z,100194.31
2024-04-14T11:43:32.945Z,100201.53
2024-04-14T11:45:59.625Z,100188.78
2024-04-14T11:48:26.624Z,100185.53
2024-04-14T11:50:53.885Z,100191.69
2024-04-14T11:53:20.720Z,100195.22
2024-04-14T11:55:47.382Z,100182.28
2024-04-14T11:58:17.710Z,100195.50
2024-04-14T12:00:44.761Z,100178.75
2024-04-14T12:03:12.875Z,100142.66
2024-04-14T12:05:39.641Z,100187.78
2024-04-14T12:08:06.779Z,100154.63
2024-04-14T12:10:34.342Z,100190.00
2024-04-14T12:13:01.295Z,100190.34
2024-04-14T12:15:28.270Z,100179.72
2024-04-14T12:17:55.029Z,100188.97
2024-04-14T12:20:22.023Z,100186.03
2024-04-14T12:22:48.754Z,100199.91
2024-04-14T12:25:15.798Z,100204.09
2024-04-14T12:27:42.682Z,100169.91
2024-04-14T12:30:09.650Z,100200.78
2024-04-14T12:32:37.187Z,100192.56
2024-04-14T12:35:04.850Z,100158.81
2024-04-14T12:37:31.593Z,100190.47
2024-04-14T12:39:58.649Z,100153.31
2024-04-14T12:42:25.640Z,100174.97
2024-04-14T12:44:52.284Z,100170.28
2024-04-14T12:47:18.956Z,100169.44
2024-04-14T12:49:45.598Z,100175.28
2024-04-14T12:52:12.304Z,100180.28
2024-04-14T12:54:39.011Z,100177.78
2024-04-14T12:57:05.800Z,100179.41
2024-04-14T12:59:32.488Z,100175.44
2024-04-14T13:01:59.210Z,100180.44
2024-04-14T13:04:26.007Z,100171.41
2024-04-14T13:06:52.668Z,100165.66
2024-04-14T13:09:19.335Z,100166.47
2024-04-14T13:11:46.273Z,100160.03
2024-04-14T13:14:12.998Z,100144.06
2024-04-14T13:16:39.690Z,100167.72
2024-04-14T13:19:06.455Z,100169.22
2024-04-14T13:21:34.852Z,100165.44
2024-04-14T13:24:01.755Z,100157.78
2024-04-14T13:26:29.156Z,100168.50
2024-04-14T13:28:55.948Z,100155.34
2024-04-14T13:31:22.603Z,100163.03
2024-04-14T13:33:49.698Z,100158.00
2024-04-14T13:36:16.543Z,100158.09
2024-04-14T13:38:43.265Z,100173.78
2024-04-14T13:41:10.288Z,100159.34
2024-04-14T13:43:37.151Z,100155.72
2024-04-14T13:46:04.069Z,100164.44
2024-04-14T13:48:30.859Z,100154.19
2024-04-14T13:50:57.542Z,100161.63
2024-04-14T13:53:24.182Z,100164.75
2024-04-14T13:55:50.851Z,100161.06
2024-04-14T13:58:21.413Z,100153.84
2024-04-14T14:00:49.077Z,100144.75
2024-04-14T14:03:16.285Z,100145.22
2024-04-14T14:05:43.060Z,100135.38
2024-04-14T14:08:10.073Z,100147.66
2024-04-14T14:10:36.936Z,100137.47
2024-04-14T14:13:03.974Z,100138.94
2024-04-14T14:15:30.802Z,100140.13
2024-04-14T14:17:57.793Z,100133.53
2024-04-14T14:20:24.442Z,100130.31
2024-04-14T14:22:51.192Z,100095.19
2024-04-14T14:25:17.921Z,100132.75
2024-04-14T14:27:44.597Z,100114.78
2024-04-14T14:30:11.405Z,100131.97
2024-04-14T14:32:41.114Z,100126.91
2024-04-14T14:35:26.607Z,100110.31
2024-04-14T14:37:53.377Z,100117.78
2024-04-14T14:40:20.141Z,100109.72
2024-04-14T14:42:48.802Z,100107.84
2024-04-14T14:45:15.682Z,100116.69
2024-04-14T14:47:42.484Z,100110.78
2024-04-14T14:50:09.317Z,100116.13
2024-04-14T14:52:36.669Z,100113.22
2024-04-14T14:55:04.154Z,100118.69
2024-04-14T14:57:31.024Z,100110.66
2024-04-14T14:59:57.724Z,100102.56
2024-04-14T15:02:24.517Z,100113.31
2024-04-14T15:04:51.359Z,100107.47
2024-04-14T15:07:18.118Z,100102.44
2024-04-14T15:09:55.401Z,100102.63
2024-04-14T15:12:22.556Z,100113.88
2024-04-14T15:14:50.283Z,100113.94
2024-04-14T15:17:17.034Z,100098.31
2024-04-14T15:19:45.485Z,100101.63
2024-04-14T15:22:14.565Z,100099.66
2024-04-14T15:24:41.866Z,100100.97
2024-04-14T15:27:08.752Z,100110.69
2024-04-14T15:29:35.536Z,100108.13
2024-04-14T15:32:02.827Z,100071.78
2024-04-14T15:34:29.565Z,100068.94
2024-04-14T15:36:57.375Z,100096.22
2024-04-14T15:39:25.882Z,100099.53
2024-04-14T15:41:53.117Z,100100.28
2024-04-14T15:44:25.841Z,100110.19
2024-04-14T15:46:54.499Z,100111.44
2024-04-14T15:49:21.448Z,100108.91
2024-04-14T15:51:48.305Z,100106.06
2024-04-14T15:54:16.272Z,100110.13
2024-04-14T15:56:43.038Z,100105.31
2024-04-14T15:59:10.624Z,100112.72
2024-04-14T16:01:37.501Z,100123.00
2024-04-14T16:04:04.458Z,100114.31
2024-04-14T16:06:31.257Z,100104.72
2024-04-14T16:08:58.282Z,100110.31
2024-04-14T16:11:25.384Z,100114.25
2024-04-14T16:13:53.838Z,100102.88
2024-04-14T16:16:21.578Z,100110.25
2024-04-14T16:18:48.812Z,100111.00
2024-04-14T16:21:15.708Z,100118.38
2024-04-14T16:23:47.318Z,100114.81
2024-04-14T16:26:14.730Z,100109.06
2024-04-14T16:28:42.135Z,100116.91
2024-04-14T16:31:10.437Z,100119.06
2024-04-14T16:33:37.372Z,100114.81
2024-04-14T16:36:05.907Z,100108.91
2024-04-14T16:38:32.611Z,100124.50
2024-04-14T16:40:59.523Z,100114.97
2024-04-14T16:43:26.289Z,100110.63
2024-04-14T16:45:53.260Z,100114.75
2024-04-14T16:48:20.085Z,100111.84
2024-04-14T16:50:46.871Z,100077.41
2024-04-14T16:53:13.598Z,100129.88
2024-04-14T16:55:40.464Z,100115.31
2024-04-14T16:58:07.343Z,100120.13
2024-04-14T17:00:36.340Z,100120.38
2024-04-14T17:03:03.750Z,100111.78
2024-04-14T17:05:30.586Z,100100.78
2024-04-14T17:07:57.383Z,100116.75
2024-04-14T17:10:24.746Z,100113.66
2024-04-14T17:12:51.436Z,100104.63
2024-04-14T17:15:18.223Z,100103.88
2024-04-14T17:17:45.173Z,100101.41
2024-04-14T17:20:11.976Z,100111.94
2024-04-14T17:22:38.689Z,100107.53
2024-04-14T17:25:06.372Z,100102.84
2024-04-14T17:27:33.086Z,100105.09
2024-04-14T17:29:59.855Z,100101.38
2024-04-14T17:32:26.531Z,100102.75
2024-04-14T17:34:54.219Z,100109.44
2024-04-14T17:37:21.392Z,100111.34
2024-04-14T17:39:48.254Z,100111.09
2024-04-14T17:42:15.057Z,100118.72
2024-04-14T17:44:41.819Z,100107.50
2024-04-14T17:47:08.881Z,100088.16
2024-04-14T17:49:35.739Z,100111.72
2024-04-14T17:52:02.460Z,100116.00
2024-04-14T17:54:29.291Z,100084.69
2024-04-14T17:57:01.908Z,100114.56
2024-04-14T17:59:29.053Z,100121.84
2024-04-14T18:01:55.896Z,100087.72
2024-04-14T18:04:22.743Z,100118.44
2024-04-14T18:06:49.695Z,100119.81
2024-04-14T18:09:18.545Z,100123.19
2024-04-14T18:11:45.230Z,100131.72
2024-04-14T18:14:15.112Z,100133.38
2024-04-14T18:16:42.113Z,100123.69
2024-04-14T18:19:09.685Z,100121.91
2024-04-14T18:21:36.495Z,100115.81
2024-04-14T18:24:03.265Z,100131.16
2024-04-14T18:26:35.310Z,100123.75
2024-04-14T18:29:02.482Z,100133.00
2024-04-14T18:31:29.809Z,100125.66
2024-04-14T18:33:57.223Z,100139.50
2024-04-14T18:36:23.913Z,100147.03
2024-04-14T18:38:50.700Z,100148.84
2024-04-14T18:41:17.420Z,100155.78
2024-04-14T18:43:44.130Z,100149.81
2024-04-14T18:46:11.589Z,100142.53
2024-04-14T18:48:40.841Z,100121.22
2024-04-14T18:51:07.701Z,100156.00
2024-04-14T18:53:34.403Z,100157.16
2024-04-14T18:56:01.792Z,100165.16
2024-04-14T18:58:33.085Z,100165.28
2024-04-14T19:01:03.387Z,100161.63
2024-04-14T19:03:30.608Z,100157.88
2024-04-14T19:06:04.645Z,100118.81
2024-04-14T19:08:31.761Z,100158.38
2024-04-14T19:10:58.540Z,100160.88
2024-04-14T19:13:25.426Z,100156.78
2024-04-14T19:15:59.566Z,100154.41
2024-04-14T19:18:26.517Z,100157.22
2024-04-14T19:20:53.732Z,100167.00
2024-04-14T19:23:21.312Z,100152.97
2024-04-14T19:25:48.572Z,100144.31
2024-04-14T19:28:16.951Z,100154.69
2024-04-14T19:30:44.218Z,100154.31
2024-04-14T19:33:10.991Z,100122.97
2024-04-14T19:35:43.896Z,100144.03
2024-04-14T19:38:17.967Z,100156.91
2024-04-14T19:40:44.655Z,100148.34
2024-04-14T19:43:11.544Z,100138.38
2024-04-14T19:45:38.304Z,100138.59
2024-04-14T19:48:05.510Z,100135.03
2024-04-14T19:50:32.480Z,100133.66
2024-04-14T19:52:59.305Z,100072.97
2024-04-14T19:55:25.994Z,100143.41
2024-04-14T19:57:54.397Z,100136.03
2024-04-14T20:00:22.016Z,100144.59
2024-04-14T20:02:48.977Z,100131.84
2024-04-14T20:05:15.706Z,100128.88
2024-04-14T20:07:42.514Z,100133.78
2024-04-14T20:10:10.914Z,100126.16
2024-04-14T20:12:37.701Z,100132.41
2024-04-14T20:15:05.541Z,100095.22
2024-04-14T20:17:32.387Z,100125.19
2024-04-14T20:19:59.177Z,100105.66
2024-04-14T20:22:26.182Z,100124.97
2024-04-14T20:24:52.850Z,100070.47
2024-04-14T20:27:19.590Z,100096.84
2024-04-14T20:29:46.394Z,100096.59
2024-04-14T20:32:13.076Z,100103.44
2024-04-14T20:34:41.036Z,100099.59
2024-04-14T20:37:07.756Z,100103.59
2024-04-14T20:39:34.433Z,100099.59
2024-04-14T20:42:01.152Z,100092.97
2024-04-14T20:44:27.956Z,100077.56
2024-04-14T20:46:54.679Z,100045.97
2024-04-14T20:49:21.333Z,100075.31
2024-04-14T20:51:48.316Z,100077.44
2024-04-14T20:54:15.006Z,100080.53
2024-04-14T20:56:42.183Z,100090.88
2024-04-14T20:59:09.079Z,100085.13
2024-04-14T21:01:35.972Z,100083.69
2024-04-14T21:04:02.653Z,100085.31
2024-04-14T21:06:29.403Z,100030.22
2024-04-14T21:08:56.063Z,100074.91
2024-04-14T21:11:22.887Z,100067.06
2024-04-14T21:13:49.689Z,100057.91
2024-04-14T21:16:16.743Z,100054.97
2024-04-14T21:18:43.667Z,100048.84
2024-04-14T21:21:10.692Z,100049.63
2024-04-14T21:23:40.387Z,100050.06
2024-04-14T21:26:09.319Z,100041.13
2024-04-14T21:28:37.293Z,100029.00
2024-04-14T21:31:04.939Z,100030.53
2024-04-14T21:33:32.233Z,100029.13
2024-04-14T21:35:59.119Z,100025.91
2024-04-14T21:38:26.025Z,100023.13
2024-04-14T21:40:54.137Z,100024.16
2024-04-14T21:43:20.787Z,100013.84
2024-04-14T21:45:58.076Z,100008.91
2024-04-14T21:48:25.540Z,100006.88
2024-04-14T21:51:06.102Z,100015.38
2024-04-14T21:53:34.274Z,100004.44
2024-04-14T21:56:01.641Z,100002.06
2024-04-14T21:58:33.181Z,99989.13
2024-04-14T22:01:02.188Z,99969.28
2024-04-14T22:03:30.329Z,99948.25
2024-04-14T22:05:58.852Z,99983.22
2024-04-14T22:08:30.856Z,99973.09
2024-04-14T22:11:00.162Z,99971.59
2024-04-14T22:13:29.190Z,99955.75
2024-04-14T22:15:56.087Z,99968.59
2024-04-14T22:18:23.292Z,99971.00
2024-04-14T22:20:50.267Z,99965.88
2024-04-14T22:23:16.932Z,99962.16
2024-04-14T22:25:43.642Z,99949.53
2024-04-14T22:28:10.283Z,99953.13
2024-04-14T22:30:38.020Z,99939.84
2024-04-14T22:33:06.462Z,99942.97
2024-04-14T22:35:33.280Z,99937.16
2024-04-14T22:38:04.652Z,99949.16
2024-04-14T22:40:31.611Z,99946.69
2024-04-14T22:42:58.644Z,99948.63
2024-04-14T22:45:25.519Z,99946.19
2024-04-14T22:47:52.502Z,99894.25
2024-04-14T22:50:19.716Z,99923.06
2024-04-14T22:52:46.463Z,99927.41
2024-04-14T22:55:13.208Z,99927.28
2024-04-14T22:57:40.147Z,99920.34
2024-04-14T23:00:11.238Z,99903.91
2024-04-14T23:02:38.227Z,99909.91
2024-04-14T23:05:05.381Z,99911.63
2024-04-14T23:07:32.194Z,99906.75
2024-04-14T23:09:58.935Z,99900.81
2024-04-14T23:12:25.905Z,99891.09
2024-04-14T23:14:52.720Z,99890.03
2024-04-14T23:17:19.478Z,99864.50
2024-04-14T23:19:46.189Z,99891.31
2024-04-14T23:22:12.899Z,99885.81
2024-04-14T23:24:39.822Z,99884.22
2024-04-14T23:27:06.713Z,99863.09
2024-04-14T23:29:33.320Z,99859.38
2024-04-14T23:31:59.990Z,99862.13
2024-04-14T23:34:26.668Z,99856.91
2024-04-14T23:36:56.346Z,99843.09
2024-04-14T23:39:23.264Z,99853.31
2024-04-14T23:41:50.722Z,99816.41
2024-04-14T23:44:17.346Z,99808.59
2024-04-14T23:46:44.536Z,99837.66
2024-04-14T23:49:11.318Z,99831.00
2024-04-14T23:51:38.097Z,99827.50
2024-04-14T23:54:05.891Z,99819.66
2024-04-14T23:56:32.515Z,99823.09
2024-04-14T23:58:59.155Z,99817.16
